Time;durP1;ratioP1;P1;durP2;ratioP2;P2;SDS_P1;SDS_P2;PMS_P1;PMS_P2;Temp;Humidity;BMP_temperature;BMP_pressure;BME280_temperature;BME280_humidity;BME280_pressure;Samples;Min_cycle;Max_cycle;Signal;HPM_P1;HPM_P2
2022/07/11 00:01:33;;;;;;;12.20;6.20;;;;;;;18.20;84.95;102293.88;4899513;29;20110;-50
2022/07/11 00:04:01;;;;;;;11.15;5.90;;;;;;;18.17;85.09;102291.69;4899646;29;20571;-51
2022/07/11 00:06:28;;;;;;;13.15;6.07;;;;;;;18.16;85.25;102290.06;4900193;29;20053;-52
2022/07/11 00:08:56;;;;;;;11.95;6.45;;;;;;;18.12;85.76;102294.50;4900330;29;20048;-49
2022/07/11 00:11:24;;;;;;;14.07;6.60;;;;;;;18.09;85.86;102293.13;4900486;29;20048;-48
2022/07/11 00:13:52;;;;;;;13.90;5.97;;;;;;;18.08;86.32;102296.16;4900022;29;20045;-48
2022/07/11 00:16:19;;;;;;;11.75;5.55;;;;;;;18.09;86.29;102286.78;4897502;29;20053;-51
2022/07/11 00:18:47;;;;;;;13.10;6.03;;;;;;;18.10;86.16;102285.66;4895787;29;20052;-52
2022/07/11 00:21:15;;;;;;;13.38;5.85;;;;;;;18.11;86.07;102281.78;4898116;29;20065;-51
2022/07/11 00:23:43;;;;;;;16.17;6.20;;;;;;;18.10;86.32;102289.25;4899684;29;20052;-49
2022/07/11 00:26:11;;;;;;;14.43;6.32;;;;;;;18.10;86.23;102280.16;4882261;29;20052;-47
2022/07/11 00:28:39;;;;;;;11.80;5.97;;;;;;;18.10;86.21;102288.44;4898885;29;20048;-49
2022/07/11 00:31:08;;;;;;;13.60;6.20;;;;;;;18.08;86.38;102282.38;4898938;29;20502;-50
2022/07/11 00:33:37;;;;;;;13.52;6.10;;;;;;;18.06;86.59;102279.91;4898983;29;20050;-51
2022/07/11 00:36:05;;;;;;;12.65;5.93;;;;;;;18.04;86.54;102286.81;4899617;29;20135;-48
2022/07/11 00:38:33;;;;;;;13.20;5.90;;;;;;;18.03;86.83;102285.16;4898829;29;20039;-50
2022/07/11 00:41:01;;;;;;;13.25;5.75;;;;;;;17.99;87.04;102279.38;4881367;29;20071;-48
2022/07/11 00:43:33;;;;;;;10.45;5.80;;;;;;;17.99;87.09;102275.78;4881972;29;20040;-49
2022/07/11 00:46:01;;;;;;;11.88;6.72;;;;;;;17.98;87.14;102272.22;4899205;29;20036;-46
2022/07/11 00:48:29;;;;;;;11.60;5.85;;;;;;;17.98;87.10;102276.91;4881171;29;20413;-50
2022/07/11 00:51:02;;;;;;;13.82;6.15;;;;;;;17.99;87.31;102278.53;4897953;29;20049;-49
2022/07/11 00:53:33;;;;;;;12.23;6.30;;;;;;;17.99;87.24;102267.50;4898101;29;20041;-48
2022/07/11 00:56:02;;;;;;;14.02;6.78;;;;;;;17.99;87.24;102273.03;4913351;29;20048;-45
2022/07/11 00:58:30;;;;;;;15.02;6.35;;;;;;;17.98;87.42;102269.44;4881548;29;20457;-44
2022/07/11 01:00:58;;;;;;;11.88;6.10;;;;;;;17.97;87.46;102267.00;4898513;29;20128;-46
2022/07/11 01:03:26;;;;;;;17.13;6.50;;;;;;;17.96;87.38;102273.59;4895833;29;20044;-45
2022/07/11 01:05:54;;;;;;;12.88;6.22;;;;;;;17.93;87.76;102272.22;4898789;29;20051;-45
2022/07/11 01:08:21;;;;;;;12.30;6.90;;;;;;;17.93;87.71;102274.16;4899036;29;20048;-46
2022/07/11 01:10:49;;;;;;;14.60;7.35;;;;;;;17.92;88.05;102261.47;4913081;29;20037;-48
2022/07/11 01:13:17;;;;;;;10.77;6.35;;;;;;;17.91;88.19;102266.16;4878099;29;20037;-49
2022/07/11 01:15:44;;;;;;;14.70;5.78;;;;;;;17.89;88.27;102271.13;4895177;29;20056;-49
2022/07/11 01:18:13;;;;;;;16.25;7.05;;;;;;;17.87;88.56;102263.16;4898393;29;20080;-48
2022/07/11 01:20:41;;;;;;;11.38;6.28;;;;;;;17.84;89.01;102260.94;4898158;29;20495;-49
2022/07/11 01:23:08;;;;;;;13.68;6.32;;;;;;;17.82;89.25;102254.06;4911900;29;20484;-46
2022/07/11 01:25:36;;;;;;;13.00;6.80;;;;;;;17.79;89.44;102254.59;4898540;29;20052;-46
2022/07/11 01:28:08;;;;;;;15.63;7.28;;;;;;;17.79;89.79;102260.13;4911729;29;20044;-50
2022/07/11 01:30:36;;;;;;;13.38;6.45;;;;;;;17.77;89.81;102265.91;4882299;29;20041;-46
2022/07/11 01:33:04;;;;;;;12.45;6.82;;;;;;;17.73;90.39;102253.81;4897885;29;20040;-45
2022/07/11 01:35:31;;;;;;;14.60;6.60;;;;;;;17.73;90.51;102259.34;4898150;29;20044;-48
2022/07/11 01:37:59;;;;;;;14.02;6.43;;;;;;;17.75;90.52;102264.53;4883012;29;20409;-47
2022/07/11 01:40:31;;;;;;;13.35;6.53;;;;;;;17.73;90.76;102264.03;4895493;29;20051;-49
2022/07/11 01:42:58;;;;;;;14.90;6.53;;;;;;;17.74;90.94;102260.97;4898154;29;20070;-45
2022/07/11 01:45:26;;;;;;;13.57;6.55;;;;;;;17.75;90.80;102259.88;4897868;29;20040;-46
2022/07/11 01:47:54;;;;;;;16.02;6.50;;;;;;;17.74;90.78;102266.47;4881659;29;20403;-47
2022/07/11 01:50:22;;;;;;;12.70;6.55;;;;;;;17.74;91.10;102260.97;4897358;29;20045;-50
2022/07/11 01:52:50;;;;;;;12.45;6.82;;;;;;;17.76;91.08;102269.78;4898285;29;20072;-50
2022/07/11 01:55:17;;;;;;;10.98;5.97;;;;;;;17.77;91.14;102268.66;4898057;29;20044;-53
2022/07/11 01:57:45;;;;;;;15.82;5.85;;;;;;;17.78;90.98;102269.50;4912554;29;20396;-52
2022/07/11 02:00:13;;;;;;;11.18;5.97;;;;;;;17.78;90.97;102275.84;4911611;29;20404;-47
2022/07/11 02:02:40;;;;;;;12.38;6.32;;;;;;;17.77;90.93;102271.41;4896522;29;20028;-47
2022/07/11 02:05:08;;;;;;;15.23;6.47;;;;;;;17.77;90.92;102270.59;4880803;29;20045;-51
2022/07/11 02:10:22;;;;;;;;;;;;;;;17.72;91.29;102274.19;4897308;29;20044;-50
2022/07/11 02:12:49;;;;;;;13.18;5.72;;;;;;;17.72;91.60;102268.69;4888142;29;19923;-54
2022/07/11 02:15:17;;;;;;;13.00;5.78;;;;;;;17.70;91.66;102275.59;4897126;29;20045;-48
2022/07/11 02:17:44;;;;;;;14.05;6.82;;;;;;;17.65;91.92;102270.91;4897239;29;20062;-50
2022/07/11 02:20:12;;;;;;;13.52;5.93;;;;;;;17.64;92.22;102261.00;4897111;29;20496;-49
2022/07/11 02:22:44;;;;;;;14.93;5.95;;;;;;;17.64;92.43;102272.03;4896987;29;20163;-51
2022/07/11 02:25:12;;;;;;;11.50;5.32;;;;;;;17.63;92.56;102265.69;4897434;29;20052;-51
2022/07/11 02:27:40;;;;;;;13.80;5.90;;;;;;;17.66;92.58;102264.31;4897103;29;20047;-50
2022/07/11 02:30:08;;;;;;;13.52;5.97;;;;;;;17.68;92.47;102275.88;4877190;29;20128;-51
2022/07/11 02:32:37;;;;;;;11.93;6.10;;;;;;;17.70;92.31;102262.63;4875782;29;20055;-53
2022/07/11 02:35:05;;;;;;;14.00;5.72;;;;;;;17.72;92.42;102259.59;4898124;29;20044;-50
2022/07/11 02:37:33;;;;;;;10.23;5.43;;;;;;;17.72;92.33;102263.16;4898793;29;20051;-47
2022/07/11 02:40:01;;;;;;;11.65;5.95;;;;;;;17.70;92.53;102257.13;4898707;29;20043;-48
2022/07/11 02:42:28;;;;;;;15.02;6.28;;;;;;;17.70;92.64;102259.06;4899237;29;20052;-47
2022/07/11 02:44:56;;;;;;;12.20;5.40;;;;;;;17.69;92.62;102258.22;4883432;29;20040;-49
2022/07/11 02:47:24;;;;;;;11.93;5.35;;;;;;;17.69;92.70;102252.72;4901453;29;20053;-49
2022/07/11 02:49:51;;;;;;;12.05;5.00;;;;;;;17.70;92.77;102254.34;4913975;29;20416;-49
2022/07/11 02:52:19;;;;;;;11.65;4.75;;;;;;;17.73;92.53;102253.81;4869237;29;20040;-50
2022/07/11 02:54:47;;;;;;;12.80;5.15;;;;;;;17.74;92.39;102249.94;4900219;29;20041;-50
2022/07/11 02:57:14;;;;;;;9.60;4.63;;;;;;;17.75;92.56;102251.59;4900770;29;20512;-50
2022/07/11 02:59:42;;;;;;;10.60;4.53;;;;;;;17.76;92.45;102252.44;4901331;29;20059;-51
2022/07/11 03:02:09;;;;;;;10.35;5.05;;;;;;;17.76;92.48;102246.91;4882384;29;20507;-48
2022/07/11 03:04:37;;;;;;;12.57;5.45;;;;;;;17.77;92.53;102254.88;4900810;29;20134;-49
2022/07/11 03:07:05;;;;;;;10.10;4.93;;;;;;;17.76;92.66;102253.25;4915305;29;20041;-50
2022/07/11 03:09:33;;;;;;;11.60;5.38;;;;;;;17.76;92.74;102253.25;4900897;29;20052;-50
2022/07/11 03:12:01;;;;;;;11.20;5.55;;;;;;;17.77;92.68;102259.56;4913323;29;20047;-49
2022/07/11 03:14:29;;;;;;;15.07;5.43;;;;;;;17.76;92.86;102253.25;4899780;29;20052;-49
2022/07/11 03:16:56;;;;;;;11.85;5.40;;;;;;;17.75;93.00;102256.28;4900567;29;20056;-48
2022/07/11 03:19:24;;;;;;;12.90;5.60;;;;;;;17.74;93.25;102265.66;4900849;29;20108;-49
2022/07/11 03:21:52;;;;;;;10.63;5.32;;;;;;;17.72;93.45;102271.44;4899483;29;20041;-48
2022/07/11 03:24:19;;;;;;;13.88;5.60;;;;;;;17.72;93.37;102262.34;4882477;29;20056;-49
2022/07/11 03:26:47;;;;;;;9.27;5.00;;;;;;;17.73;93.43;102272.28;4914847;29;20057;-48
2022/07/11 03:29:14;;;;;;;9.65;5.25;;;;;;;17.72;93.57;102267.88;4883707;29;20048;-49
2022/07/11 03:31:42;;;;;;;14.40;5.25;;;;;;;17.73;93.58;102264.03;4912379;29;20068;-49
2022/07/11 03:34:10;;;;;;;11.43;4.95;;;;;;;17.71;93.44;102272.56;4899990;29;20041;-49
2022/07/11 03:36:37;;;;;;;8.88;4.60;;;;;;;17.70;93.69;102270.91;4880693;29;20041;-49
2022/07/11 03:39:05;;;;;;;12.93;5.22;;;;;;;17.70;93.81;102265.38;4892791;29;20045;-49
2022/07/11 03:41:33;;;;;;;10.57;4.43;;;;;;;17.70;93.97;102262.63;4898643;29;20492;-49
2022/07/11 03:44:01;;;;;;;8.55;4.72;;;;;;;17.70;94.14;102264.56;4900124;29;20080;-49
2022/07/11 03:46:28;;;;;;;13.13;5.15;;;;;;;17.69;93.89;102274.78;4900432;29;20044;-47
2022/07/11 03:48:57;;;;;;;9.23;4.38;;;;;;;17.67;94.22;102271.47;4899817;29;20053;-50
2022/07/11 03:51:24;;;;;;;11.23;4.70;;;;;;;17.67;94.38;102265.94;4899395;29;20463;-53
2022/07/11 03:53:52;;;;;;;10.57;4.57;;;;;;;17.68;94.18;102273.94;4899557;29;20500;-52
2022/07/11 03:56:22;;;;;;;11.82;4.40;;;;;;;17.67;94.27;102269.53;4898959;29;20055;-52
2022/07/11 03:58:50;;;;;;;12.85;4.78;;;;;;;17.68;94.48;102278.66;4887488;29;20139;-53
2022/07/11 04:01:19;;;;;;;10.43;4.25;;;;;;;17.67;94.43;102274.22;4881559;29;20045;-51
2022/07/11 04:03:47;;;;;;;8.77;4.20;;;;;;;17.67;94.65;102275.03;4878765;29;20057;-50
2022/07/11 04:06:15;;;;;;;12.25;4.40;;;;;;;17.66;94.47;102272.59;4894918;29;20047;-54
2022/07/11 04:08:43;;;;;;;8.90;4.30;;;;;;;17.64;94.66;102272.03;4914237;29;20047;-54
2022/07/11 04:11:11;;;;;;;10.05;4.45;;;;;;;17.63;94.70;102267.59;4899022;29;20049;-53
2022/07/11 04:13:38;;;;;;;9.27;4.20;;;;;;;17.60;94.70;102257.97;4899396;29;20115;-53
2022/07/11 04:16:07;;;;;;;9.35;4.05;;;;;;;17.60;95.07;102266.25;4899969;29;20052;-51
2022/07/11 04:18:34;;;;;;;12.30;3.80;;;;;;;17.62;95.07;102260.47;4899450;29;20076;-51
2022/07/11 04:21:02;;;;;;;12.15;4.03;;;;;;;17.63;94.85;102268.47;4900141;29;20048;-52
2022/07/11 04:23:36;;;;;;;8.20;3.67;;;;;;;17.64;94.90;102269.28;4898826;29;20124;-51
2022/07/11 04:26:04;;;;;;;7.60;3.90;;;;;;;17.63;94.87;102264.84;4896314;29;20047;-50
2022/07/11 04:28:32;;;;;;;9.70;3.50;;;;;;;17.64;94.99;102263.75;4899669;29;20040;-54
2022/07/11 04:31:00;;;;;;;7.80;3.28;;;;;;;17.64;94.84;102269.28;4900279;29;20531;-53
2022/07/11 04:33:27;;;;;;;9.35;3.08;;;;;;;17.60;94.59;102279.19;4916470;29;20040;-54
2022/07/11 04:35:55;;;;;;;10.20;3.20;;;;;;;17.57;94.70;102266.00;4883136;29;20045;-49
2022/07/11 04:38:23;;;;;;;6.55;3.28;;;;;;;17.57;95.10;102275.06;4899348;29;20055;-49
2022/07/11 04:40:51;;;;;;;7.47;3.38;;;;;;;17.55;95.25;102274.53;4879246;29;20053;-49
2022/07/11 04:43:19;;;;;;;7.60;3.25;;;;;;;17.54;95.53;102281.16;4899120;29;20040;-51
2022/07/11 04:45:47;;;;;;;8.10;3.58;;;;;;;17.50;96.17;102285.56;4899792;29;20049;-52
2022/07/11 04:48:14;;;;;;;9.23;3.50;;;;;;;17.48;96.34;102289.72;4899399;29;20457;-50
2022/07/11 04:50:45;;;;;;;13.55;4.07;;;;;;;17.49;96.95;102291.38;4898744;29;20045;-52
2022/07/11 04:53:13;;;;;;;10.35;4.15;;;;;;;17.50;97.03;102291.06;4880136;29;20056;-47
2022/07/11 04:55:41;;;;;;;12.88;4.72;;;;;;;17.50;97.45;102293.00;4898876;29;20044;-50
2022/07/11 04:58:09;;;;;;;10.50;4.40;;;;;;;17.46;97.68;102293.59;4912918;29;20081;-47
2022/07/11 05:00:36;;;;;;;12.10;3.90;;;;;;;17.45;97.95;102291.91;4897802;29;20051;-47
2022/07/11 05:03:09;;;;;;;10.13;4.28;;;;;;;17.45;97.91;102294.66;4898106;29;20048;-50
2022/07/11 05:05:37;;;;;;;8.65;4.10;;;;;;;17.49;97.70;102300.47;4886864;29;20053;-49
2022/07/11 05:08:04;;;;;;;9.15;3.78;;;;;;;17.47;97.99;102288.88;4899544;29;20055;-50
2022/07/11 05:10:33;;;;;;;10.70;4.30;;;;;;;17.48;97.74;102289.72;4899321;29;20055;-52
2022/07/11 05:13:00;;;;;;;14.10;4.22;;;;;;;17.44;97.98;102295.78;4913404;29;20053;-53
2022/07/11 05:15:28;;;;;;;9.32;4.05;;;;;;;17.42;98.22;102292.47;4899736;29;20051;-51
2022/07/11 05:17:56;;;;;;;9.30;3.70;;;;;;;17.43;98.19;102293.28;4881824;29;20512;-49
2022/07/11 05:20:24;;;;;;;11.43;3.72;;;;;;;17.43;98.44;102293.28;4911923;29;20051;-48
2022/07/11 05:22:51;;;;;;;9.40;3.42;;;;;;;17.44;98.36;102298.53;4898409;29;20044;-49
2022/07/11 05:25:19;;;;;;;9.45;3.30;;;;;;;17.44;98.47;102295.78;4897598;29;20071;-50
2022/07/11 05:27:47;;;;;;;9.27;3.40;;;;;;;17.45;98.96;102302.94;4897959;29;20049;-49
2022/07/11 05:30:14;;;;;;;12.10;3.85;;;;;;;17.41;99.44;102306.53;4911332;29;20045;-50
2022/07/11 05:32:42;;;;;;;14.10;3.20;;;;;;;17.37;99.81;102305.44;4205548;29;10000588;-49
2022/07/11 05:35:10;;;;;;;12.52;3.38;;;;;;;17.34;99.97;102306.84;4909072;29;20065;-51
2022/07/11 05:37:37;;;;;;;19.67;4.47;;;;;;;17.36;99.96;102304.59;4874980;29;20057;-51
2022/07/11 05:40:06;;;;;;;16.08;3.78;;;;;;;17.37;99.96;102306.28;4907851;29;20052;-53
2022/07/11 05:42:33;;;;;;;12.23;3.55;;;;;;;17.37;99.92;102310.97;4895009;29;20061;-54
2022/07/11 05:45:01;;;;;;;15.43;3.50;;;;;;;17.37;100.00;102310.97;4894648;29;20132;-52
2022/07/11 05:47:29;;;;;;;11.95;3.67;;;;;;;17.36;100.00;102307.34;4893894;29;20083;-55
2022/07/11 05:49:57;;;;;;;11.90;3.63;;;;;;;17.36;99.90;102312.88;4908857;29;20076;-50
2022/07/11 05:52:24;;;;;;;18.30;4.28;;;;;;;17.37;100.00;102321.97;4894550;29;20444;-52
2022/07/11 05:54:52;;;;;;;7.05;2.58;;;;;;;17.33;100.00;102316.19;4894929;29;20048;-56
2022/07/11 05:57:19;;;;;;;7.43;2.78;;;;;;;17.32;100.00;102324.72;4894418;29;20048;-50
2022/07/11 05:59:48;;;;;;;5.82;2.67;;;;;;;17.34;100.00;102328.03;4895145;29;20081;-53
2022/07/11 06:02:15;;;;;;;11.32;3.33;;;;;;;17.34;100.00;102326.13;4894384;29;20076;-55
2022/07/11 06:04:44;;;;;;;9.60;3.47;;;;;;;17.33;100.00;102327.19;4895008;29;20097;-54
2022/07/11 06:08:40;;;;;;;11.23;3.00;;;;;;;17.31;100.00;102328.59;4893716;29;20043;-55
2022/07/11 06:10:00;;;;;;;17.00;4.13;;;;;;;17.28;100.00;102329.97;4894664;29;20044;-55
2022/07/11 06:12:27;;;;;;;21.23;4.68;;;;;;;17.28;100.00;102335.47;4908687;29;20040;-51
2022/07/11 06:14:55;;;;;;;15.52;4.43;;;;;;;17.27;100.00;102336.59;4894209;29;20130;-51
2022/07/11 06:17:23;;;;;;;14.43;3.70;;;;;;;17.31;100.00;102334.91;4894306;29;20070;-51
2022/07/11 06:19:50;;;;;;;23.05;4.65;;;;;;;17.37;100.00;102333.81;4895928;29;20055;-53
2022/07/11 06:22:18;;;;;;;8.23;3.05;;;;;;;17.34;100.00;102334.38;4898002;29;20048;-50
2022/07/11 06:24:52;;;;;;;16.38;3.75;;;;;;;17.36;100.00;102332.16;4881261;29;20175;-51
2022/07/11 06:27:19;;;;;;;20.80;4.72;;;;;;;17.40;100.00;102341.53;4893878;29;20045;-48
2022/07/11 06:29:47;;;;;;;18.40;4.47;;;;;;;17.34;100.00;102337.13;4896586;29;20056;-50
2022/07/11 06:32:14;;;;;;;19.40;5.22;;;;;;;17.34;100.00;102330.78;4897281;29;20530;-50
2022/07/11 06:34:42;;;;;;;46.47;6.38;;;;;;;17.32;100.00;102336.59;4897985;29;20055;-52
2022/07/11 06:37:10;;;;;;;24.88;4.82;;;;;;;17.28;100.00;102335.47;4877887;29;20053;-53
2022/07/11 06:39:38;;;;;;;32.63;6.38;;;;;;;17.30;100.00;102336.03;4893000;29;20055;-52
2022/07/11 06:42:05;;;;;;;31.80;6.80;;;;;;;17.30;100.00;102337.97;4898318;29;20055;-52
2022/07/11 06:44:33;;;;;;;15.73;4.00;;;;;;;17.30;100.00;102333.28;4898288;29;20135;-54
2022/07/11 06:47:00;;;;;;;5.88;2.80;;;;;;;17.33;100.00;102332.72;4901463;29;20061;-49
2022/07/11 06:49:28;;;;;;;8.27;2.95;;;;;;;17.36;100.00;102337.66;4915296;29;20472;-48
2022/07/11 06:51:56;;;;;;;19.73;4.70;;;;;;;17.38;100.00;102329.13;4901041;29;20048;-52
2022/07/11 06:54:23;;;;;;;24.80;4.45;;;;;;;17.35;100.00;102327.75;4900650;29;20047;-49
2022/07/11 06:56:51;;;;;;;19.13;4.05;;;;;;;17.31;100.00;102323.91;4901205;29;20041;-52
2022/07/11 06:59:18;;;;;;;12.82;3.47;;;;;;;17.34;100.00;102323.38;4901133;29;20044;-53
2022/07/11 07:01:46;;;;;;;8.70;3.70;;;;;;;17.40;100.00;102318.66;4900311;29;20062;-53
2022/07/11 07:04:13;;;;;;;6.65;2.70;;;;;;;17.42;100.00;102324.72;4901259;29;20439;-52
2022/07/11 07:06:41;;;;;;;6.47;2.70;;;;;;;17.44;100.00;102320.59;4900750;29;20081;-50
2022/07/11 07:09:09;;;;;;;26.13;3.92;;;;;;;17.46;100.00;102320.28;4901158;29;20045;-51
2022/07/11 07:11:36;;;;;;;7.50;2.92;;;;;;;17.48;100.00;102317.25;4915181;29;20041;-51
2022/07/11 07:14:04;;;;;;;8.90;3.00;;;;;;;17.50;100.00;102320.56;4880306;29;20043;-50
2022/07/11 07:16:32;;;;;;;8.25;2.85;;;;;;;17.56;99.73;102319.47;4876165;29;20523;-53
2022/07/11 07:18:59;;;;;;;8.55;3.13;;;;;;;17.61;99.19;102320.28;4900678;29;20089;-50
2022/07/11 07:21:27;;;;;;;5.38;2.90;;;;;;;17.66;98.73;102313.94;4900412;29;20045;-50
2022/07/11 07:23:55;;;;;;;3.72;2.10;;;;;;;17.65;98.04;102318.63;4899497;29;20045;-52
2022/07/11 07:26:23;;;;;;;6.00;2.28;;;;;;;17.65;98.69;102318.63;4900519;29;20041;-50
2022/07/11 07:28:51;;;;;;;5.65;2.63;;;;;;;17.67;98.77;102315.56;4900438;29;20530;-50
2022/07/11 07:31:18;;;;;;;6.30;2.50;;;;;;;17.74;98.27;102309.78;4899296;29;20052;-50
2022/07/11 07:33:46;;;;;;;3.65;2.40;;;;;;;17.78;97.97;102317.19;4902001;29;20052;-48
2022/07/11 07:36:14;;;;;;;3.58;2.42;;;;;;;17.81;97.62;102310.34;4898930;29;20040;-50
2022/07/11 07:38:46;;;;;;;5.18;2.33;;;;;;;17.79;97.39;102318.84;4900352;29;20456;-47
2022/07/11 07:41:15;;;;;;;5.85;2.78;;;;;;;17.77;97.23;102315.53;4900365;29;20041;-51
2022/07/11 07:43:42;;;;;;;6.55;2.83;;;;;;;17.78;97.04;102310.88;4900348;29;20045;-51
2022/07/11 07:46:11;;;;;;;8.63;3.03;;;;;;;17.76;96.97;102316.66;4900048;29;20057;-50
2022/07/11 07:48:39;;;;;;;6.53;2.92;;;;;;;17.76;97.14;102324.94;4891389;29;20056;-50
2022/07/11 07:51:07;;;;;;;4.82;3.08;;;;;;;17.73;97.21;102325.50;4887197;29;20132;-51
2022/07/11 07:53:35;;;;;;;7.10;2.30;;;;;;;17.70;97.51;102319.69;4898871;29;20044;-49
2022/07/11 07:56:03;;;;;;;9.27;3.00;;;;;;;17.69;97.43;102329.91;4900128;29;20050;-49
2022/07/11 07:58:31;;;;;;;8.07;2.97;;;;;;;17.73;97.25;102327.44;4883224;29;20072;-51
2022/07/11 08:03:44;;;;;;;;;;;;;;;17.75;96.23;102333.47;4900440;29;20045;-49
2022/07/11 08:06:12;;;;;;;10.48;3.40;;;;;;;17.74;96.55;102335.41;4899679;29;19932;-50
2022/07/11 08:08:40;;;;;;;5.18;3.25;;;;;;;17.75;96.69;102333.47;4899159;29;20467;-49
2022/07/11 08:11:08;;;;;;;5.07;2.55;;;;;;;17.76;96.58;102335.94;4914544;29;20045;-51
2022/07/11 08:13:55;;;;;;;4.03;2.30;;;;;;;17.73;95.92;102342.03;4900002;29;20044;-50
2022/07/11 08:16:23;;;;;;;3.38;2.05;;;;;;;17.72;95.81;102345.88;4899829;29;20139;-54
2022/07/11 08:18:55;;;;;;;3.60;2.45;;;;;;;17.72;96.04;102343.13;4899153;29;20052;-49
2022/07/11 08:21:23;;;;;;;3.28;2.00;;;;;;;17.71;95.68;102340.66;4899778;29;20067;-50
2022/07/11 08:23:50;;;;;;;2.97;1.95;;;;;;;17.70;95.83;102342.56;4899753;29;20386;-52
2022/07/11 08:26:18;;;;;;;5.68;2.63;;;;;;;17.69;95.85;102335.41;4902498;29;20045;-50
2022/07/11 08:28:46;;;;;;;5.88;2.88;;;;;;;17.71;96.03;102335.97;4913802;29;20048;-49
2022/07/11 08:31:13;;;;;;;5.88;3.67;;;;;;;17.74;96.68;102338.16;4899310;29;20055;-51
2022/07/11 08:33:41;;;;;;;7.35;4.10;;;;;;;17.79;96.46;102340.91;4899593;29;20457;-50
2022/07/11 08:36:09;;;;;;;7.72;4.90;;;;;;;17.80;96.04;102337.09;4899297;29;20032;-50
2022/07/11 08:38:37;;;;;;;6.43;4.53;;;;;;;17.82;95.98;102339.53;4899435;29;20037;-50
2022/07/11 08:41:05;;;;;;;9.00;5.30;;;;;;;17.83;95.34;102341.22;4899324;29;20048;-52
2022/07/11 08:43:33;;;;;;;9.02;5.65;;;;;;;17.79;95.09;102340.91;4899265;29;20041;-51
2022/07/11 08:46:01;;;;;;;7.50;4.75;;;;;;;17.77;95.23;102343.09;4898931;29;20044;-52
2022/07/11 08:48:28;;;;;;;8.38;4.82;;;;;;;17.77;95.08;102342.28;4913398;29;20051;-52
2022/07/11 08:50:56;;;;;;;7.30;3.78;;;;;;;17.75;94.90;102342.59;4899091;29;20051;-51
2022/07/11 08:53:24;;;;;;;7.38;4.63;;;;;;;17.73;94.99;102342.03;4913757;29;20048;-54
2022/07/11 08:55:52;;;;;;;7.25;4.50;;;;;;;17.71;95.42;102349.75;4913660;29;20071;-55
2022/07/11 08:58:19;;;;;;;6.30;3.92;;;;;;;17.74;95.44;102349.19;4898346;29;20075;-51
2022/07/11 09:00:47;;;;;;;8.07;3.88;;;;;;;17.76;95.48;102344.22;4913255;29;20044;-50
2022/07/11 09:03:17;;;;;;;9.55;4.30;;;;;;;17.77;95.42;102337.59;4913507;29;20048;-51
2022/07/11 09:05:45;;;;;;;6.95;3.95;;;;;;;17.80;95.60;102330.72;4912858;29;20057;-50
2022/07/11 09:08:12;;;;;;;6.38;3.33;;;;;;;17.82;95.66;102334.88;4913495;29;20496;-51
2022/07/11 09:10:40;;;;;;;4.10;3.13;;;;;;;17.87;94.97;102340.38;4898407;29;20044;-52
2022/07/11 09:13:13;;;;;;;6.43;3.17;;;;;;;17.90;94.85;102338.16;4897290;29;20065;-52
2022/07/11 09:15:42;;;;;;;6.25;3.47;;;;;;;17.91;94.81;102340.63;4898814;29;20039;-50
2022/07/11 09:18:35;;;;;;;6.53;3.47;;;;;;;17.96;94.69;102339.78;4898465;29;20060;-51
2022/07/11 09:26:42;;;;;;;6.75;2.97;;;;;;;18.00;93.83;102344.47;4887101;29;20504;-49
2022/07/11 09:29:12;;;;;;;4.05;2.60;;;;;;;17.99;93.46;102336.47;4898534;29;20151;-50
2022/07/11 09:31:42;;;;;;;4.50;3.10;;;;;;;18.01;93.79;102340.59;4912868;29;20051;-52
2022/07/11 09:34:29;;;;;;;5.78;3.50;;;;;;;18.08;93.61;102337.53;4912393;29;20049;-52
2022/07/11 09:36:57;;;;;;;5.65;3.00;;;;;;;18.11;92.85;102336.97;4887143;29;20040;-51
2022/07/11 09:39:29;;;;;;;5.47;2.80;;;;;;;18.14;92.29;102330.91;4878536;29;20045;-50
2022/07/11 09:41:57;;;;;;;4.65;2.63;;;;;;;18.17;92.02;102333.09;4881375;29;20080;-52
2022/07/11 09:44:32;;;;;;;7.25;2.88;;;;;;;18.23;91.49;102336.63;4898303;29;20044;-50
2022/07/11 09:47:02;;;;;;;4.13;2.40;;;;;;;18.26;91.17;102339.66;4898127;29;20040;-50
2022/07/11 09:49:36;;;;;;;4.68;2.00;;;;;;;18.26;90.25;102334.16;4878882;29;20104;-54
2022/07/11 09:52:14;;;;;;;2.95;1.90;;;;;;;18.22;90.43;102332.25;4878734;29;20041;-50
2022/07/11 09:55:01;;;;;;;2.88;2.05;;;;;;;18.25;90.58;102335.25;4906887;29;20045;-50
2022/07/11 09:57:33;;;;;;;2.95;2.13;;;;;;;18.28;90.49;102329.19;4902303;29;20068;-56
2022/07/11 10:00:09;;;;;;;2.20;1.30;;;;;;;18.30;89.72;102329.72;4915904;29;20154;-55
2022/07/11 10:02:37;;;;;;;2.20;1.45;;;;;;;18.32;88.95;102337.69;4913944;29;20049;-55
2022/07/11 10:05:05;;;;;;;4.70;2.40;;;;;;;18.30;89.36;102343.53;4899048;29;20044;-50
2022/07/11 10:07:33;;;;;;;3.47;2.47;;;;;;;18.28;89.61;102342.97;4899677;29;20036;-49
2022/07/11 10:10:02;;;;;;;3.78;2.40;;;;;;;18.28;89.26;102337.47;4899537;29;20144;-53
2022/07/11 10:12:31;;;;;;;2.88;2.40;;;;;;;18.28;89.93;102339.41;4865047;29;20041;-56
2022/07/11 10:15:06;;;;;;;3.33;2.45;;;;;;;18.28;90.11;102345.75;4876605;29;20131;-53
2022/07/11 10:18:05;;;;;;;2.90;2.33;;;;;;;18.29;89.69;102347.38;4912754;29;20057;-54
2022/07/11 10:20:52;;;;;;;2.97;2.40;;;;;;;18.28;89.92;102348.50;4897710;29;20055;-55
2022/07/11 10:23:38;;;;;;;5.25;2.45;;;;;;;18.30;90.19;102350.94;4898122;29;20055;-53
2022/07/11 10:26:35;;;;;;;;;;;;;;;18.32;90.44;102348.75;4899529;29;20122;-49
2022/07/11 10:29:24;;;;;;;3.08;2.50;;;;;;;18.33;90.38;102342.13;4881556;29;20014;-50
2022/07/11 10:32:06;;;;;;;3.20;2.15;;;;;;;18.34;90.25;102352.03;4881400;29;20059;-50
2022/07/11 10:34:40;;;;;;;4.78;1.70;;;;;;;18.36;89.83;102352.59;4897860;29;20037;-49
2022/07/11 10:37:09;;;;;;;5.85;2.28;;;;;;;18.36;89.73;102354.53;4910231;29;20072;-50
2022/07/11 10:39:39;;;;;;;2.45;1.48;;;;;;;18.33;90.65;102352.31;4895634;29;20048;-52
2022/07/11 10:42:09;;;;;;;3.72;1.92;;;;;;;18.31;91.08;102347.91;4912118;29;20135;-51
2022/07/11 10:44:54;;;;;;;2.28;1.73;;;;;;;18.34;90.97;102345.72;4910989;29;20550;-50
2022/07/11 10:47:44;;;;;;;2.55;1.83;;;;;;;18.38;91.03;102346.81;4897184;29;20036;-49
2022/07/11 10:50:40;;;;;;;2.30;1.80;;;;;;;18.46;90.96;102351.72;4905528;29;20419;-47
2022/07/11 10:53:09;;;;;;;2.35;1.98;;;;;;;18.49;90.09;102356.66;4911858;29;20051;-50
2022/07/11 10:56:04;;;;;;;2.83;1.70;;;;;;;18.49;89.16;102354.72;4896767;29;20044;-50
2022/07/11 10:58:32;;;;;;;3.63;2.03;;;;;;;18.53;88.90;102349.47;4897189;29;20072;-49
2022/07/11 11:01:11;;;;;;;1.77;1.67;;;;;;;18.59;88.62;102353.88;4897500;29;20047;-48
2022/07/11 11:03:40;;;;;;;3.13;1.70;;;;;;;18.61;88.58;102351.63;4912072;29;20148;-50
2022/07/11 11:06:08;;;;;;;1.60;1.50;;;;;;;18.64;87.58;102352.97;4897669;29;20405;-49
2022/07/11 11:08:40;;;;;;;1.70;1.52;;;;;;;18.63;87.70;102354.94;4901026;29;20052;-47
2022/07/11 11:11:35;;;;;;;3.63;1.77;;;;;;;18.64;87.93;102356.59;4900878;29;20050;-48
2022/07/11 11:14:22;;;;;;;2.75;2.40;;;;;;;18.72;87.89;102355.16;4900347;29;20059;-49
2022/07/11 11:16:50;;;;;;;5.78;2.00;;;;;;;18.74;87.75;102359.28;4897204;29;20053;-50
2022/07/11 11:19:46;;;;;;;2.35;1.50;;;;;;;18.76;86.90;102352.63;4883545;29;20072;-53
2022/07/11 11:22:18;;;;;;;4.70;1.80;;;;;;;18.75;87.13;102357.34;4883478;29;20424;-54
2022/07/11 11:24:47;;;;;;;3.35;1.88;;;;;;;18.76;87.54;102363.69;4900867;29;20051;-50
2022/07/11 11:27:35;;;;;;;3.13;1.70;;;;;;;18.85;88.51;102356.47;4912758;29;20052;-51
2022/07/11 11:30:04;;;;;;;3.30;2.05;;;;;;;18.93;87.78;102353.94;4914698;29;20048;-51
2022/07/11 11:32:35;;;;;;;2.95;2.00;;;;;;;18.98;87.77;102353.09;4898709;29;20097;-49
2022/07/11 11:35:05;;;;;;;3.17;2.45;;;;;;;19.02;87.38;102350.56;4900594;29;20049;-46
2022/07/11 11:37:35;;;;;;;4.30;3.00;;;;;;;19.05;87.02;102345.28;4900162;29;20096;-51
2022/07/11 11:40:03;;;;;;;5.13;3.10;;;;;;;19.08;86.54;102344.72;4883771;29;20177;-49
2022/07/11 11:42:31;;;;;;;4.88;2.40;;;;;;;19.07;86.13;102343.06;4899939;29;20492;-51
2022/07/11 11:45:03;;;;;;;5.68;2.05;;;;;;;19.04;86.43;102343.63;4883335;29;20555;-51